createdAt,value
2022-09-20T00:00:23.822Z,10.30
2022-09-20T00:01:23.859Z,10.70
2022-09-20T00:02:23.805Z,12.50
2022-09-20T00:03:23.793Z,11.10
2022-09-20T00:04:23.783Z,10.30
2022-09-20T00:05:23.825Z,11.20
2022-09-20T00:06:23.765Z,9.60
2022-09-20T00:07:23.756Z,8.00
2022-09-20T00:08:23.746Z,11.10
2022-09-20T00:09:23.739Z,9.60
2022-09-20T00:10:23.728Z,9.40
2022-09-20T00:11:23.719Z,10.50
2022-09-20T00:12:23.711Z,8.60
2022-09-20T00:13:23.709Z,10.80
2022-09-20T00:14:23.695Z,11.30
2022-09-20T00:15:23.683Z,10.00
2022-09-20T00:16:23.749Z,10.00
2022-09-20T00:17:23.666Z,8.80
2022-09-20T00:18:23.658Z,8.80
2022-09-20T00:19:23.649Z,10.30
2022-09-20T00:20:23.640Z,10.50
2022-09-20T00:21:23.628Z,11.00
2022-09-20T00:22:23.621Z,12.30
2022-09-20T00:23:23.612Z,10.30
2022-09-20T00:24:23.604Z,9.20
2022-09-20T00:25:23.593Z,9.20
2022-09-20T00:26:23.584Z,11.00
2022-09-20T00:27:23.576Z,8.50
2022-09-20T00:28:23.568Z,9.80
2022-09-20T00:29:23.558Z,10.80
2022-09-20T00:30:23.550Z,9.50
2022-09-20T00:31:23.600Z,10.00
2022-09-20T00:32:23.532Z,13.10
2022-09-20T00:33:23.521Z,13.30
2022-09-20T00:34:23.512Z,10.00
2022-09-20T00:35:23.503Z,9.40
2022-09-20T00:36:23.493Z,11.40
2022-09-20T00:37:23.484Z,10.90
2022-09-20T00:38:23.477Z,8.50
2022-09-20T00:39:23.466Z,13.00
2022-09-20T00:40:23.492Z,11.10
2022-09-20T00:41:23.454Z,12.20
2022-09-20T00:42:23.439Z,13.00
2022-09-20T00:43:23.429Z,8.40
2022-09-20T00:44:23.426Z,11.80
2022-09-20T00:45:23.411Z,9.40
2022-09-20T00:46:23.462Z,12.70
2022-09-20T00:47:23.393Z,9.90
2022-09-20T00:48:23.388Z,11.30
2022-09-20T00:49:23.376Z,10.00
2022-09-20T00:50:23.366Z,9.50
2022-09-20T00:51:23.354Z,8.50
2022-09-20T00:52:23.349Z,10.30
2022-09-20T00:53:23.341Z,11.40
2022-09-20T00:54:23.330Z,11.40
2022-09-20T00:55:23.320Z,10.90
2022-09-20T00:56:23.310Z,11.10
2022-09-20T00:57:23.304Z,10.40
2022-09-20T00:58:23.294Z,10.70
2022-09-20T00:59:23.284Z,10.00
2022-09-20T01:00:23.275Z,12.60
2022-09-20T01:01:23.321Z,10.50
2022-09-20T01:02:23.353Z,13.00
2022-09-20T01:03:23.249Z,10.90
2022-09-20T01:04:23.239Z,12.60
2022-09-20T01:05:23.231Z,11.40
2022-09-20T01:06:23.222Z,8.30
2022-09-20T01:07:23.210Z,12.20
2022-09-20T01:08:23.204Z,13.60
2022-09-20T01:09:23.193Z,11.20
2022-09-20T01:10:23.185Z,11.30
2022-09-20T01:11:23.174Z,9.80
2022-09-20T01:12:23.169Z,9.10
2022-09-20T01:13:23.157Z,12.90
2022-09-20T01:14:23.146Z,10.60
2022-09-20T01:15:23.137Z,10.70
2022-09-20T01:16:23.173Z,11.30
2022-09-20T01:17:23.121Z,11.90
2022-09-20T01:18:23.112Z,11.70
2022-09-20T01:19:23.102Z,11.00
2022-09-20T01:20:23.091Z,11.00
2022-09-20T01:21:23.081Z,11.90
2022-09-20T01:22:23.075Z,11.90
2022-09-20T01:23:23.067Z,9.80
2022-09-20T01:24:23.066Z,10.30
2022-09-20T01:25:23.047Z,12.80
2022-09-20T01:26:23.038Z,9.30
2022-09-20T01:27:23.032Z,11.50
2022-09-20T01:28:23.021Z,11.40
2022-09-20T01:29:23.011Z,9.40
2022-09-20T01:30:23.002Z,9.10
2022-09-20T01:31:23.038Z,11.60
2022-09-20T01:33:54.633Z,9.90
2022-09-20T01:34:54.610Z,9.40
2022-09-20T01:36:47.718Z,11.50
2022-09-20T01:37:47.701Z,9.80
2022-09-20T01:39:40.621Z,9.60
2022-09-20T01:40:40.625Z,12.80
2022-09-20T01:42:44.595Z,7.80
2022-09-20T01:43:44.580Z,15.00
2022-09-20T01:45:37.737Z,10.20
2022-09-20T01:46:37.664Z,10.40
2022-09-20T01:48:41.664Z,9.70
2022-09-20T01:49:41.639Z,11.00
2022-09-20T01:51:45.636Z,12.10
2022-09-20T01:52:45.624Z,8.40
2022-09-20T01:54:38.548Z,8.90
2022-09-20T01:55:38.524Z,13.80
2022-09-20T01:57:31.433Z,8.50
2022-09-20T01:58:31.419Z,13.10
2022-09-20T02:00:35.415Z,11.00
2022-09-20T02:01:35.464Z,11.40
2022-09-20T02:03:39.398Z,10.70
2022-09-20T02:04:39.375Z,11.50
2022-09-20T02:06:32.285Z,11.30
2022-09-20T02:07:32.273Z,12.60
2022-09-20T02:09:36.285Z,11.00
2022-09-20T02:10:36.262Z,10.50
2022-09-20T02:12:51.342Z,12.10
2022-09-20T02:13:51.327Z,11.60
2022-09-20T02:15:44.240Z,10.70
2022-09-20T02:16:44.273Z,8.80
2022-09-20T02:18:37.342Z,10.30
2022-09-20T02:19:37.321Z,11.00
2022-09-20T02:21:41.314Z,10.80
2022-09-20T02:22:41.296Z,8.50
2022-09-20T02:24:45.780Z,8.20
2022-09-20T02:25:45.754Z,9.30
2022-09-20T02:26:45.751Z,12.90
2022-09-20T02:27:45.740Z,9.10
2022-09-20T02:28:45.733Z,6.90
2022-09-20T02:29:45.724Z,8.60
2022-09-20T02:30:45.712Z,6.20
2022-09-20T02:31:45.772Z,7.50
2022-09-20T02:32:45.694Z,8.60
2022-09-20T02:33:45.689Z,8.10
2022-09-20T02:34:45.676Z,8.60
2022-09-20T02:35:45.669Z,7.40
2022-09-20T02:36:45.659Z,7.80
2022-09-20T02:37:45.651Z,7.10
2022-09-20T02:38:45.643Z,7.90
2022-09-20T02:39:45.629Z,6.80
2022-09-20T02:40:45.658Z,6.80
2022-09-20T02:41:45.613Z,10.40
2022-09-20T02:42:45.602Z,6.90
2022-09-20T02:43:45.592Z,8.60
2022-09-20T02:44:45.584Z,7.90
2022-09-20T02:45:45.634Z,8.90
2022-09-20T02:46:45.577Z,6.70
2022-09-20T02:47:45.564Z,7.40
2022-09-20T02:48:45.547Z,7.50
2022-09-20T02:49:45.540Z,7.70
2022-09-20T02:50:45.525Z,7.90
2022-09-20T02:51:45.519Z,10.20
2022-09-20T02:52:45.513Z,10.50
2022-09-20T02:53:45.500Z,7.20
2022-09-20T02:54:45.491Z,10.10
2022-09-20T02:55:45.483Z,7.90
2022-09-20T02:56:45.474Z,8.80
2022-09-20T02:57:45.468Z,6.90
2022-09-20T02:58:45.455Z,8.30
2022-09-20T02:59:45.468Z,9.80
2022-09-20T03:00:45.610Z,8.20
2022-09-20T03:01:45.524Z,7.50
2022-09-20T03:02:45.519Z,8.80
2022-09-20T03:03:45.410Z,9.40
2022-09-20T03:04:45.401Z,7.50
2022-09-20T03:05:45.391Z,9.60
2022-09-20T03:06:45.385Z,6.90
2022-09-20T03:07:45.372Z,7.60
2022-09-20T03:08:45.361Z,8.00
2022-09-20T03:09:45.353Z,8.30
2022-09-20T03:10:45.345Z,8.70
2022-09-20T03:11:45.334Z,8.20
2022-09-20T03:12:45.326Z,9.50
2022-09-20T03:13:45.317Z,9.10
2022-09-20T03:14:45.308Z,8.80
2022-09-20T03:15:45.298Z,7.70
2022-09-20T03:16:48.762Z,7.80
2022-09-20T03:17:45.281Z,7.10
2022-09-20T03:18:45.269Z,9.10
2022-09-20T03:19:45.272Z,7.60
2022-09-20T03:20:45.253Z,8.90
2022-09-20T03:21:45.244Z,8.70
2022-09-20T03:22:45.234Z,7.90
2022-09-20T03:23:45.225Z,7.80
2022-09-20T03:24:45.217Z,8.90
2022-09-20T03:25:45.207Z,8.40
2022-09-20T03:26:45.198Z,9.10
2022-09-20T03:27:45.191Z,9.50
2022-09-20T03:28:45.181Z,10.60
2022-09-20T03:29:45.168Z,14.10
2022-09-20T03:30:45.161Z,9.10
2022-09-20T03:31:45.219Z,8.90
2022-09-20T03:32:45.143Z,10.00
2022-09-20T03:33:45.131Z,11.60
2022-09-20T03:34:45.122Z,11.00
2022-09-20T03:35:45.113Z,9.60
2022-09-20T03:36:45.106Z,8.80
2022-09-20T03:37:45.096Z,8.90
2022-09-20T03:38:45.084Z,9.90
2022-09-20T03:39:45.083Z,9.70
2022-09-20T03:40:46.678Z,8.80
2022-09-20T03:41:45.065Z,9.10
2022-09-20T03:42:45.052Z,9.60
2022-09-20T03:43:45.041Z,8.80
2022-09-20T03:44:45.032Z,11.00
2022-09-20T03:45:45.122Z,10.90
2022-09-20T03:46:45.012Z,8.20
2022-09-20T03:47:45.006Z,11.10
2022-09-20T03:48:44.996Z,11.10
2022-09-20T03:49:44.987Z,9.40
2022-09-20T03:50:44.982Z,9.70
2022-09-20T03:51:44.970Z,6.90
2022-09-20T03:52:44.961Z,10.20
2022-09-20T03:53:44.956Z,10.80
2022-09-20T03:54:44.942Z,9.80
2022-09-20T03:55:44.932Z,10.10
2022-09-20T03:56:44.921Z,8.60
2022-09-20T03:57:44.912Z,9.30
2022-09-20T03:58:44.906Z,9.90
2022-09-20T03:59:44.896Z,10.20
2022-09-20T04:00:44.925Z,11.50
2022-09-20T04:01:44.882Z,8.80
2022-09-20T04:02:44.909Z,7.50
2022-09-20T04:03:44.859Z,8.30
2022-09-20T04:04:44.856Z,9.50
2022-09-20T04:05:44.845Z,8.70
2022-09-20T04:06:44.841Z,9.60
2022-09-20T04:07:44.825Z,10.90
2022-09-20T04:08:44.817Z,8.40
2022-09-20T04:09:44.809Z,9.50
2022-09-20T04:10:44.796Z,9.60
2022-09-20T04:11:44.794Z,8.80
2022-09-20T04:12:44.793Z,8.30
2022-09-20T04:13:44.781Z,7.80
2022-09-20T04:14:44.768Z,10.20
2022-09-20T04:15:44.754Z,9.40
2022-09-20T04:16:44.792Z,9.40
2022-09-20T04:17:44.742Z,11.10
2022-09-20T04:18:44.739Z,10.00
2022-09-20T04:19:44.732Z,7.90
2022-09-20T04:20:44.720Z,7.00
2022-09-20T04:21:44.701Z,9.70
2022-09-20T04:22:44.697Z,10.50
2022-09-20T04:23:44.687Z,7.80
2022-09-20T04:24:44.669Z,10.00
2022-09-20T04:25:44.664Z,9.90
2022-09-20T04:26:44.656Z,10.10
2022-09-20T04:27:44.644Z,8.30
2022-09-20T04:28:44.644Z,9.00
2022-09-20T04:29:44.629Z,9.60
2022-09-20T04:30:44.621Z,8.40
2022-09-20T04:31:44.679Z,9.30
2022-09-20T04:32:44.604Z,9.50
2022-09-20T04:33:44.594Z,8.80
2022-09-20T04:34:44.588Z,9.60
2022-09-20T04:35:44.570Z,10.50
2022-09-20T04:36:44.570Z,8.60
2022-09-20T04:37:44.558Z,8.80
2022-09-20T04:38:44.550Z,9.70
2022-09-20T04:39:44.541Z,8.30
2022-09-20T04:40:44.633Z,7.80
2022-09-20T04:41:44.523Z,8.80
2022-09-20T04:42:44.516Z,10.10
2022-09-20T04:43:44.504Z,9.90
2022-09-20T04:44:44.501Z,9.30
2022-09-20T04:45:44.538Z,9.10
2022-09-20T04:46:44.486Z,10.30
2022-09-20T04:47:44.471Z,11.90
2022-09-20T04:48:44.462Z,9.70
2022-09-20T04:49:44.453Z,8.30
2022-09-20T04:50:44.449Z,8.70
2022-09-20T04:51:44.436Z,9.40
2022-09-20T04:52:44.428Z,14.80
2022-09-20T04:53:44.418Z,9.80
2022-09-20T04:54:44.417Z,9.10
2022-09-20T04:55:44.441Z,9.60
2022-09-20T04:56:44.393Z,7.20
2022-09-20T04:57:44.378Z,7.90
2022-09-20T04:58:44.373Z,11.30
2022-09-20T04:59:44.363Z,10.00
2022-09-20T05:00:44.422Z,10.60
2022-09-20T05:01:44.401Z,9.70
2022-09-20T05:02:44.398Z,10.90
2022-09-20T05:03:44.331Z,11.60
2022-09-20T05:04:44.326Z,11.70
2022-09-20T05:05:44.439Z,11.90
2022-09-20T05:06:44.314Z,9.50
2022-09-20T05:07:44.438Z,10.90
2022-09-20T05:08:44.287Z,7.80
2022-09-20T05:09:44.276Z,10.10
2022-09-20T05:10:44.266Z,10.00
2022-09-20T05:11:44.257Z,8.00
2022-09-20T05:12:44.252Z,10.30
2022-09-20T05:13:44.244Z,9.80
2022-09-20T05:14:44.232Z,10.10
2022-09-20T05:15:44.222Z,11.50
2022-09-20T05:16:44.277Z,8.80
2022-09-20T05:17:44.207Z,11.60
2022-09-20T05:18:44.196Z,11.90
2022-09-20T05:19:44.189Z,10.70
2022-09-20T05:20:44.177Z,9.20
2022-09-20T05:21:44.172Z,7.90
2022-09-20T05:22:44.161Z,9.80
2022-09-20T05:23:44.159Z,9.90
2022-09-20T05:24:44.148Z,8.90
2022-09-20T05:25:44.138Z,8.40
2022-09-20T05:26:44.124Z,10.40
2022-09-20T05:27:44.121Z,9.90
2022-09-20T05:28:44.107Z,9.00
2022-09-20T05:29:44.100Z,7.70
2022-09-20T05:30:44.094Z,8.30
2022-09-20T05:31:44.110Z,6.60
2022-09-20T05:32:44.091Z,8.60
2022-09-20T05:33:44.064Z,7.30
2022-09-20T05:34:44.064Z,8.40
2022-09-20T05:35:44.049Z,9.20
2022-09-20T05:36:44.038Z,7.00
2022-09-20T05:37:44.038Z,6.50
2022-09-20T05:38:44.024Z,7.10
2022-09-20T05:39:44.014Z,8.30
2022-09-20T05:40:44.560Z,6.20
2022-09-20T05:41:43.997Z,6.40
2022-09-20T05:42:44.000Z,6.70
2022-09-20T05:43:43.986Z,8.30
2022-09-20T05:44:43.970Z,7.50
2022-09-20T05:45:43.972Z,4.90
2022-09-20T05:46:43.952Z,5.90
2022-09-20T05:47:43.951Z,5.80
2022-09-20T05:48:43.938Z,7.30
2022-09-20T05:49:43.931Z,4.90
2022-09-20T05:50:43.925Z,6.30
2022-09-20T05:51:43.927Z,5.40
2022-09-20T05:52:43.908Z,4.50
2022-09-20T05:53:43.902Z,5.50
2022-09-20T05:54:43.889Z,3.60
2022-09-20T05:55:43.881Z,3.10
2022-09-20T05:56:43.874Z,3.10
2022-09-20T05:57:43.864Z,3.20
2022-09-20T05:58:43.860Z,3.90
2022-09-20T05:59:43.847Z,5.80
2022-09-20T06:00:43.844Z,3.50
2022-09-20T06:01:43.838Z,3.30
2022-09-20T06:02:43.832Z,5.80
2022-09-20T06:03:43.824Z,3.20
2022-09-20T06:04:43.814Z,5.30
2022-09-20T06:05:43.810Z,3.50
2022-09-20T06:06:43.798Z,2.90
2022-09-20T06:07:43.815Z,3.20
2022-09-20T06:08:43.784Z,3.00
2022-09-20T06:09:43.774Z,5.70
2022-09-20T06:10:43.765Z,5.40
2022-09-20T06:11:46.310Z,4.60
2022-09-20T06:12:43.779Z,3.70
2022-09-20T06:13:43.745Z,4.90
2022-09-20T06:14:43.733Z,5.90
2022-09-20T06:15:43.727Z,4.60
2022-09-20T06:16:43.761Z,4.80
2022-09-20T06:17:43.713Z,4.50
2022-09-20T06:18:43.704Z,2.90
2022-09-20T06:19:43.696Z,3.60
2022-09-20T06:20:43.697Z,4.60
2022-09-20T06:21:43.681Z,6.00
2022-09-20T06:22:43.674Z,4.40
2022-09-20T06:23:43.661Z,5.70
2022-09-20T06:24:43.657Z,4.80
2022-09-20T06:25:43.651Z,6.40
2022-09-20T06:26:43.644Z,5.50
2022-09-20T06:27:43.632Z,4.50
2022-09-20T06:28:43.625Z,4.80
2022-09-20T06:29:43.618Z,4.50
2022-09-20T06:30:43.659Z,7.50
2022-09-20T06:31:43.600Z,3.90
2022-09-20T06:32:43.591Z,4.50
2022-09-20T06:33:43.587Z,4.20
2022-09-20T06:34:43.580Z,6.70
2022-09-20T06:35:43.570Z,6.90
2022-09-20T06:36:43.563Z,4.20
2022-09-20T06:37:43.551Z,5.20
2022-09-20T06:38:43.546Z,5.10
2022-09-20T06:39:43.534Z,3.90
2022-09-20T06:40:43.531Z,3.40
2022-09-20T06:41:43.524Z,5.20
2022-09-20T06:42:43.513Z,3.80
2022-09-20T06:43:43.504Z,3.90
2022-09-20T06:44:43.496Z,3.70
2022-09-20T06:45:43.519Z,5.00
2022-09-20T06:46:43.480Z,3.60
2022-09-20T06:47:43.474Z,4.40
2022-09-20T06:48:43.462Z,4.00
2022-09-20T06:49:43.461Z,4.20
2022-09-20T06:50:43.448Z,3.90
2022-09-20T06:51:43.443Z,4.20
2022-09-20T06:52:43.430Z,4.00
2022-09-20T06:53:43.428Z,4.10
2022-09-20T06:54:43.417Z,4.80
2022-09-20T06:55:43.409Z,4.50
2022-09-20T06:56:43.399Z,4.10
2022-09-20T06:57:43.406Z,4.10
2022-09-20T06:58:43.388Z,3.60
2022-09-20T06:59:43.375Z,4.70
2022-09-20T07:00:43.467Z,5.90
2022-09-20T07:01:43.434Z,4.90
2022-09-20T07:02:43.355Z,5.00
2022-09-20T07:03:43.348Z,4.60
2022-09-20T07:04:43.337Z,5.50
2022-09-20T07:05:43.329Z,4.30
2022-09-20T07:06:43.318Z,5.50
2022-09-20T07:07:43.312Z,5.60
2022-09-20T07:08:43.309Z,5.90
2022-09-20T07:09:43.313Z,4.60
2022-09-20T07:10:43.298Z,5.00
2022-09-20T07:11:43.281Z,5.00
2022-09-20T07:12:43.275Z,4.30
2022-09-20T07:13:43.266Z,4.00
2022-09-20T07:14:43.259Z,5.90
2022-09-20T07:15:43.252Z,6.60
2022-09-20T07:16:43.371Z,5.30
2022-09-20T07:17:43.235Z,4.00
2022-09-20T07:18:43.235Z,4.70
2022-09-20T07:19:43.222Z,4.10
2022-09-20T07:20:43.209Z,3.00
2022-09-20T07:21:43.204Z,4.00
2022-09-20T07:22:43.205Z,3.30
2022-09-20T07:23:43.184Z,4.70
2022-09-20T07:24:43.178Z,4.40
2022-09-20T07:25:43.173Z,3.70
2022-09-20T07:26:43.164Z,4.20
2022-09-20T07:27:43.156Z,3.30
2022-09-20T07:28:43.149Z,5.80
2022-09-20T07:29:43.141Z,6.10
2022-09-20T07:30:43.134Z,4.30
2022-09-20T07:31:43.169Z,4.20
2022-09-20T07:32:43.117Z,6.30
2022-09-20T07:33:51.777Z,5.90
2022-09-20T07:35:36.545Z,4.50
2022-09-20T07:36:36.516Z,4.30
2022-09-20T07:37:37.240Z,4.40
2022-09-20T07:38:36.497Z,4.20
2022-09-20T07:39:36.487Z,4.20
2022-09-20T07:40:36.562Z,3.90
2022-09-20T07:41:36.475Z,3.40
2022-09-20T07:42:36.465Z,5.50
2022-09-20T07:43:36.459Z,4.30
2022-09-20T07:44:36.453Z,4.70
2022-09-20T07:45:36.475Z,4.40
2022-09-20T07:46:36.439Z,4.60
2022-09-20T07:47:36.429Z,5.70
2022-09-20T07:48:36.420Z,4.40
2022-09-20T07:49:36.416Z,4.40
2022-09-20T07:50:36.405Z,3.20
2022-09-20T07:51:36.397Z,4.70
2022-09-20T07:52:36.389Z,4.20
2022-09-20T07:53:36.380Z,4.50
2022-09-20T07:54:36.371Z,4.00
2022-09-20T07:55:36.366Z,5.40
2022-09-20T07:56:36.357Z,3.90
2022-09-20T07:57:36.351Z,4.00
2022-09-20T07:58:36.339Z,5.70
2022-09-20T07:59:36.337Z,6.30
2022-09-20T08:00:36.331Z,5.80
2022-09-20T08:01:36.377Z,5.30
2022-09-20T08:02:36.388Z,5.20
2022-09-20T08:03:36.309Z,5.20
2022-09-20T08:04:36.305Z,5.40
2022-09-20T08:05:36.299Z,5.50
2022-09-20T08:06:36.282Z,4.20
2022-09-20T08:07:36.274Z,3.90
2022-09-20T08:08:36.265Z,5.30
2022-09-20T08:09:36.261Z,4.10
2022-09-20T08:10:36.251Z,4.50
2022-09-20T08:11:36.247Z,3.90
2022-09-20T08:14:36.218Z,3.70
2022-09-20T08:15:36.207Z,3.80
2022-09-20T08:16:36.235Z,6.80
2022-09-20T08:17:36.201Z,8.20
2022-09-20T08:18:36.191Z,5.10
2022-09-20T08:19:36.184Z,3.90
2022-09-20T08:20:36.174Z,3.60
2022-09-20T08:21:36.163Z,3.70
2022-09-20T08:22:36.158Z,4.50
2022-09-20T08:23:36.153Z,4.70
2022-09-20T08:24:36.142Z,4.50
2022-09-20T08:25:36.136Z,4.20
2022-09-20T08:26:36.123Z,3.20
2022-09-20T08:27:36.121Z,4.10
2022-09-20T08:28:36.109Z,5.30
2022-09-20T08:29:36.111Z,5.70
2022-09-20T08:30:36.098Z,4.60
2022-09-20T08:31:36.130Z,6.30
2022-09-20T08:32:36.087Z,3.30
2022-09-20T08:33:36.074Z,5.00
2022-09-20T08:34:36.067Z,4.30
2022-09-20T08:35:38.157Z,5.20
2022-09-20T08:36:36.945Z,5.60
2022-09-20T08:37:36.102Z,3.70
2022-09-20T08:40:36.043Z,6.00
2022-09-20T08:41:36.014Z,5.10
2022-09-20T08:42:42.017Z,5.50
2022-09-20T08:43:35.997Z,4.90
2022-09-20T08:44:36.000Z,5.30
2022-09-20T08:45:35.991Z,2.30
2022-09-20T08:46:36.041Z,5.00
2022-09-20T08:47:36.047Z,6.30
2022-09-20T08:48:35.960Z,5.30
2022-09-20T08:49:35.957Z,3.60
2022-09-20T08:50:35.958Z,4.40
2022-09-20T08:51:35.941Z,4.10
2022-09-20T08:52:36.629Z,5.10
2022-09-20T08:53:35.922Z,5.00
2022-09-20T08:54:35.919Z,3.40
2022-09-20T08:55:37.225Z,3.60
2022-09-20T08:56:35.902Z,3.90
2022-09-20T08:57:35.899Z,4.60
2022-09-20T08:58:35.889Z,2.70
2022-09-20T08:59:35.883Z,4.40
2022-09-20T09:00:35.874Z,3.90
2022-09-20T09:01:35.865Z,4.20
2022-09-20T09:02:35.913Z,4.70
2022-09-20T09:03:35.849Z,4.80
2022-09-20T09:04:35.849Z,5.70
2022-09-20T09:05:35.836Z,3.60
2022-09-20T09:06:35.830Z,5.20
2022-09-20T09:07:35.821Z,4.50
2022-09-20T09:08:38.146Z,4.00
2022-09-20T09:09:37.666Z,5.10
2022-09-20T09:10:35.800Z,5.90
2022-09-20T09:11:35.795Z,5.70
2022-09-20T09:12:35.788Z,3.30
2022-09-20T09:13:35.781Z,3.70
2022-09-20T09:14:35.770Z,4.70
2022-09-20T09:15:35.762Z,4.20
2022-09-20T09:16:36.462Z,3.70
2022-09-20T09:17:35.750Z,4.20
2022-09-20T09:18:35.743Z,4.20
2022-09-20T09:19:35.728Z,5.10
2022-09-20T09:20:35.730Z,4.60
2022-09-20T09:21:35.723Z,5.00
2022-09-20T09:22:35.718Z,5.60
2022-09-20T09:23:35.705Z,4.60
2022-09-20T09:24:35.702Z,5.10
2022-09-20T09:25:35.689Z,4.90
2022-09-20T09:26:35.688Z,4.10
2022-09-20T09:27:35.679Z,4.50
2022-09-20T09:28:35.674Z,3.70
2022-09-20T09:29:35.669Z,6.60
2022-09-20T09:30:35.654Z,8.40
2022-09-20T09:31:35.726Z,5.80
2022-09-20T09:32:35.640Z,6.10
2022-09-20T09:33:35.637Z,6.00
2022-09-20T09:34:35.632Z,5.20
2022-09-20T09:35:35.624Z,3.50
2022-09-20T09:36:35.618Z,4.40
2022-09-20T09:37:35.619Z,3.30
2022-09-20T09:38:35.602Z,5.00
2022-09-20T09:39:35.589Z,4.60
2022-09-20T09:40:35.633Z,10.40
2022-09-20T09:41:35.593Z,10.50
2022-09-20T09:42:35.581Z,6.40
2022-09-20T09:43:35.587Z,4.60
2022-09-20T09:44:35.577Z,10.90
2022-09-20T09:45:35.625Z,7.20
2022-09-20T09:46:35.553Z,4.50
2022-09-20T09:47:35.547Z,6.30
2022-09-20T09:48:38.592Z,7.00
2022-09-20T09:49:35.532Z,6.50
2022-09-20T09:50:35.532Z,8.10
2022-09-20T09:51:35.521Z,5.20
2022-09-20T09:52:35.522Z,3.60
2022-09-20T09:53:35.507Z,3.40
2022-09-20T09:54:35.502Z,3.00
2022-09-20T09:55:35.496Z,3.50
2022-09-20T09:56:35.505Z,3.90
2022-09-20T09:57:35.486Z,4.00
2022-09-20T09:58:35.482Z,4.80
2022-09-20T09:59:35.467Z,3.70
2022-09-20T10:00:35.472Z,6.20
2022-09-20T10:01:35.512Z,7.90
2022-09-20T10:02:35.513Z,8.80
2022-09-20T10:03:35.444Z,7.10
2022-09-20T10:04:35.450Z,7.60
2022-09-20T10:05:35.436Z,8.40
2022-09-20T10:06:35.435Z,8.20
2022-09-20T10:07:35.427Z,4.50
2022-09-20T10:08:35.436Z,4.70
2022-09-20T10:09:35.424Z,4.40
2022-09-20T10:10:35.411Z,5.50
2022-09-20T10:11:35.401Z,6.30
2022-09-20T10:12:35.400Z,5.70
2022-09-20T10:13:40.320Z,4.10
2022-09-20T10:14:35.391Z,4.50
2022-09-20T10:15:35.387Z,5.30
2022-09-20T10:16:35.411Z,6.90
2022-09-20T10:17:35.369Z,4.80
2022-09-20T10:18:35.367Z,5.80
2022-09-20T10:19:35.374Z,4.90
2022-09-20T10:20:35.353Z,3.70
2022-09-20T10:21:35.348Z,5.20
2022-09-20T10:22:35.346Z,4.10
2022-09-20T10:24:01.278Z,5.70
2022-09-20T10:24:35.332Z,5.00
2022-09-20T10:25:35.326Z,4.20
2022-09-20T10:26:35.324Z,5.30
2022-09-20T10:27:35.314Z,4.60
2022-09-20T10:28:35.314Z,7.70
2022-09-20T10:29:35.306Z,6.20
2022-09-20T10:30:35.323Z,5.50
2022-09-20T10:31:35.358Z,6.90
2022-09-20T10:32:35.296Z,4.60
2022-09-20T10:33:35.287Z,4.00
2022-09-20T10:34:35.280Z,5.40
2022-09-20T10:35:35.283Z,4.80
2022-09-20T10:36:35.268Z,4.40
2022-09-20T10:37:35.264Z,5.70
2022-09-20T10:38:35.257Z,5.00
2022-09-20T10:39:35.252Z,4.10
2022-09-20T10:40:35.282Z,4.30
2022-09-20T10:41:35.250Z,6.80
2022-09-20T10:42:35.237Z,3.60
2022-09-20T10:43:35.233Z,4.40
2022-09-20T10:44:35.225Z,4.50
2022-09-20T10:46:35.248Z,5.10
2022-09-20T10:47:35.214Z,5.60
2022-09-20T10:48:35.204Z,4.80
2022-09-20T10:49:35.200Z,3.60
2022-09-20T10:50:35.193Z,4.80
2022-09-20T10:51:35.187Z,5.30
2022-09-20T10:52:35.184Z,4.20
2022-09-20T10:53:35.176Z,5.60
2022-09-20T10:54:35.170Z,5.90
2022-09-20T10:55:35.162Z,7.60
2022-09-20T10:56:35.156Z,5.30
2022-09-20T10:57:35.279Z,4.30
2022-09-20T10:58:35.148Z,6.90
2022-09-20T10:59:35.141Z,7.60
2022-09-20T11:00:35.194Z,6.40
2022-09-20T11:01:35.228Z,7.80
2022-09-20T11:02:35.165Z,6.20
2022-09-20T11:03:35.122Z,5.90
2022-09-20T11:04:35.111Z,5.10
2022-09-20T11:05:35.110Z,4.40
2022-09-20T11:06:35.099Z,3.00
2022-09-20T11:07:35.091Z,4.10
2022-09-20T11:08:35.082Z,2.90
2022-09-20T11:09:35.091Z,1.80
2022-09-20T11:10:35.071Z,1.90
2022-09-20T11:11:35.064Z,1.70
2022-09-20T11:12:35.057Z,3.80
2022-09-20T11:13:35.057Z,3.20
2022-09-20T11:14:35.048Z,2.50
2022-09-20T11:15:35.040Z,0.90
2022-09-20T11:16:35.104Z,0.70
2022-09-20T11:17:35.024Z,1.20
2022-09-20T11:18:35.018Z,2.10
2022-09-20T11:19:35.009Z,2.80
2022-09-20T11:20:35.005Z,3.20
2022-09-20T11:21:34.996Z,2.60
2022-09-20T11:22:34.989Z,2.00
2022-09-20T11:23:34.981Z,3.60
2022-09-20T11:24:34.976Z,3.90
2022-09-20T11:25:34.966Z,3.20
2022-09-20T11:26:34.962Z,3.30
2022-09-20T11:27:34.954Z,3.20
2022-09-20T11:28:34.946Z,3.50
2022-09-20T11:29:34.939Z,4.20
2022-09-20T11:30:34.933Z,4.80
2022-09-20T11:31:34.963Z,3.50
2022-09-20T11:32:34.919Z,3.90
2022-09-20T11:33:38.095Z,5.40
2022-09-20T11:34:34.908Z,5.20
2022-09-20T11:35:34.899Z,5.20
2022-09-20T11:36:34.890Z,4.80
2022-09-20T11:37:34.886Z,3.40
2022-09-20T11:38:34.877Z,7.00
2022-09-20T11:39:34.869Z,4.30
2022-09-20T11:40:34.931Z,5.80
2022-09-20T11:41:34.856Z,6.30
2022-09-20T11:42:34.857Z,5.80
2022-09-20T11:43:34.843Z,5.60
2022-09-20T11:44:34.833Z,7.80
2022-09-20T11:45:34.867Z,9.80
2022-09-20T11:46:34.824Z,9.00
2022-09-20T11:47:53.883Z,7.10
2022-09-20T11:48:34.808Z,7.50
2022-09-20T11:49:34.807Z,6.40
2022-09-20T11:50:34.798Z,8.40
2022-09-20T11:51:34.789Z,6.70
2022-09-20T11:52:34.796Z,5.90
2022-09-20T11:53:37.018Z,4.50
2022-09-20T11:54:34.773Z,6.60
2022-09-20T11:55:34.763Z,5.30
2022-09-20T11:56:34.757Z,8.80
2022-09-20T11:57:34.760Z,8.40
2022-09-20T11:58:34.745Z,7.20
2022-09-20T11:59:34.743Z,8.30
2022-09-20T12:00:34.728Z,9.90
2022-09-20T12:01:34.726Z,6.80
2022-09-20T12:02:34.809Z,8.40
2022-09-20T12:03:34.744Z,7.70
2022-09-20T12:04:35.326Z,7.30
2022-09-20T12:05:34.705Z,7.30
2022-09-20T12:06:34.693Z,8.60
2022-09-20T12:07:34.687Z,10.10
2022-09-20T12:08:34.682Z,9.60
2022-09-20T12:09:34.677Z,8.50
2022-09-20T12:10:34.673Z,6.20
2022-09-20T12:11:34.661Z,5.20
2022-09-20T12:12:34.661Z,6.80
2022-09-20T12:13:34.657Z,5.20
2022-09-20T12:14:34.646Z,4.70
2022-09-20T12:15:34.638Z,4.70
2022-09-20T12:16:34.651Z,3.90
2022-09-20T12:17:34.625Z,3.30
2022-09-20T12:18:34.620Z,4.30
2022-09-20T12:19:34.611Z,4.10
2022-09-20T12:20:34.620Z,2.80
2022-09-20T12:21:34.604Z,3.80
2022-09-20T12:22:34.596Z,4.30
2022-09-20T12:23:34.591Z,3.30
2022-09-20T12:24:34.587Z,5.60
2022-09-20T12:25:34.579Z,3.80
2022-09-20T12:26:34.572Z,4.10
2022-09-20T12:27:34.564Z,3.50
2022-09-20T12:28:34.565Z,4.80
2022-09-20T12:29:34.553Z,4.60
2022-09-20T12:30:34.549Z,3.70
2022-09-20T12:31:34.580Z,4.10
2022-09-20T12:32:34.533Z,4.00
2022-09-20T12:33:34.530Z,4.10
2022-09-20T12:34:34.523Z,4.30
2022-09-20T12:35:34.514Z,4.60
2022-09-20T12:36:34.508Z,5.50
2022-09-20T12:37:34.507Z,3.90
2022-09-20T12:38:34.496Z,4.00
2022-09-20T12:39:34.489Z,4.20
2022-09-20T12:40:34.524Z,3.10
2022-09-20T12:41:34.478Z,4.40
2022-09-20T12:42:34.471Z,3.40
2022-09-20T12:43:34.465Z,2.90
2022-09-20T12:44:34.459Z,3.10
2022-09-20T12:45:34.488Z,3.50
2022-09-20T12:46:34.451Z,4.30
2022-09-20T12:47:34.444Z,1.80
2022-09-20T12:48:34.432Z,2.70
2022-09-20T12:49:34.429Z,1.90
2022-09-20T12:50:34.422Z,2.20
2022-09-20T12:51:34.416Z,1.30
2022-09-20T12:52:34.404Z,1.20
2022-09-20T12:53:34.400Z,0.60
2022-09-20T12:54:34.394Z,1.50
2022-09-20T12:55:34.386Z,1.10
2022-09-20T12:56:34.382Z,1.70
2022-09-20T12:57:34.375Z,1.10
2022-09-20T12:58:34.367Z,0.80
2022-09-20T12:59:34.355Z,0.90
2022-09-20T13:00:34.431Z,1.00
2022-09-20T13:01:34.396Z,1.50
2022-09-20T13:02:34.339Z,1.40
2022-09-20T13:03:34.333Z,1.10
2022-09-20T13:04:34.325Z,0.90
2022-09-20T13:05:34.320Z,0.90
2022-09-20T13:06:34.318Z,1.20
2022-09-20T13:07:34.313Z,1.30
2022-09-20T13:08:34.489Z,1.80
2022-09-20T13:09:34.290Z,1.40
2022-09-20T13:10:34.281Z,1.10
2022-09-20T13:11:34.289Z,1.40
2022-09-20T13:12:34.265Z,1.10
2022-09-20T13:13:34.265Z,1.30
2022-09-20T13:14:34.252Z,2.10
2022-09-20T13:15:34.246Z,1.90
2022-09-20T13:16:34.340Z,1.40
2022-09-20T13:17:34.252Z,1.70
2022-09-20T13:18:34.232Z,1.80
2022-09-20T13:19:34.216Z,1.00
2022-09-20T13:20:34.211Z,2.00
2022-09-20T13:21:34.200Z,0.90
2022-09-20T13:22:34.197Z,1.00
2022-09-20T13:23:34.191Z,1.20
2022-09-20T13:24:34.184Z,1.10
2022-09-20T13:25:34.181Z,1.50
2022-09-20T13:26:34.177Z,1.70
2022-09-20T13:27:34.163Z,0.70
2022-09-20T13:28:34.161Z,1.50
2022-09-20T13:29:34.149Z,1.60
2022-09-20T13:30:34.156Z,0.90
2022-09-20T13:31:34.169Z,0.80
2022-09-20T13:32:34.130Z,1.30
2022-09-20T13:33:34.123Z,0.80
2022-09-20T13:34:41.273Z,1.30
2022-09-20T13:36:38.096Z,0.80
2022-09-20T13:37:38.076Z,2.20
2022-09-20T13:39:31.014Z,4.40